sensor_id;sensor_type;location;lat;lon;timestamp;pressure;altitude;pressure_sealevel;temperature;humidity
80509;BME280;69838;52.602;13.434;2023-05-27T00:00:19;102337.94;;;5.87;85.76
80509;BME280;69838;52.602;13.434;2023-05-27T00:01:04;102368.25;;;6.06;86.62
80509;BME280;69838;52.602;13.434;2023-05-27T00:01:50;102364.69;;;6.01;85.86
80509;BME280;69838;52.602;13.434;2023-05-27T00:02:35;102373.66;;;5.97;85.87
80509;BME280;69838;52.602;13.434;2023-05-27T00:03:20;102374.53;;;5.94;86.25
80509;BME280;69838;52.602;13.434;2023-05-27T00:04:06;102363.81;;;5.92;86.21
80509;BME280;69838;52.602;13.434;2023-05-27T00:04:51;102350.41;;;5.91;86.47
80509;BME280;69838;52.602;13.434;2023-05-27T00:05:36;102371.88;;;5.99;86.10
80509;BME280;69838;52.602;13.434;2023-05-27T00:06:21;102344.22;;;5.80;85.94
80509;BME280;69838;52.602;13.434;2023-05-27T00:07:07;102369.19;;;5.99;86.19
80509;BME280;69838;52.602;13.434;2023-05-27T00:07:52;102362.91;;;5.92;85.99
80509;BME280;69838;52.602;13.434;2023-05-27T00:08:38;102372.75;;;5.93;85.89
80509;BME280;69838;52.602;13.434;2023-05-27T00:09:23;102335.25;;;5.82;85.94
80509;BME280;69838;52.602;13.434;2023-05-27T00:10:09;102372.75;;;6.02;86.13
80509;BME280;69838;52.602;13.434;2023-05-27T00:10:54;102374.53;;;6.00;85.93
80509;BME280;69838;52.602;13.434;2023-05-27T00:11:39;102360.25;;;5.90;85.69
80509;BME280;69838;52.602;13.434;2023-05-27T00:12:25;102371.88;;;5.99;85.80
80509;BME280;69838;52.602;13.434;2023-05-27T00:13:10;102357.59;;;5.84;85.90
80509;BME280;69838;52.602;13.434;2023-05-27T00:13:56;102370.06;;;5.90;85.95
80509;BME280;69838;52.602;13.434;2023-05-27T00:14:41;102368.31;;;5.86;86.15
80509;BME280;69838;52.602;13.434;2023-05-27T00:15:26;102355.81;;;5.76;85.96
80509;BME280;69838;52.602;13.434;2023-05-27T00:16:12;102379.03;;;5.84;86.03
80509;BME280;69838;52.602;13.434;2023-05-27T00:16:57;102375.47;;;5.82;86.19
80509;BME280;69838;52.602;13.434;2023-05-27T00:17:43;102332.69;;;5.54;86.08
80509;BME280;69838;52.602;13.434;2023-05-27T00:18:28;102369.22;;;5.74;86.34
80509;BME280;69838;52.602;13.434;2023-05-27T00:19:13;102368.34;;;5.73;86.49
80509;BME280;69838;52.602;13.434;2023-05-27T00:19:58;102362.97;;;5.72;86.49
80509;BME280;69838;52.602;13.434;2023-05-27T00:20:51;102371.00;;;5.75;86.94
80509;BME280;69838;52.602;13.434;2023-05-27T00:21:36;102351.41;;;5.65;86.69
80509;BME280;69838;52.602;13.434;2023-05-27T00:22:22;102372.81;;;5.74;86.35
80509;BME280;69838;52.602;13.434;2023-05-27T00:23:08;102373.69;;;5.72;86.58
80509;BME280;69838;52.602;13.434;2023-05-27T00:23:53;102346.03;;;5.56;86.93
80509;BME280;69838;52.602;13.434;2023-05-27T00:24:38;102379.09;;;5.69;86.57
80509;BME280;69838;52.602;13.434;2023-05-27T00:25:24;102376.38;;;5.73;86.17
80509;BME280;69838;52.602;13.434;2023-05-27T00:26:10;102382.66;;;5.68;86.42
80509;BME280;69838;52.602;13.434;2023-05-27T00:26:55;102374.63;;;5.60;86.39
80509;BME280;69838;52.602;13.434;2023-05-27T00:27:40;102377.28;;;5.68;86.70
80509;BME280;69838;52.602;13.434;2023-05-27T00:28:25;102374.59;;;5.68;86.55
80509;BME280;69838;52.602;13.434;2023-05-27T00:29:15;102384.44;;;5.64;86.73
80509;BME280;69838;52.602;13.434;2023-05-27T00:30:01;102377.31;;;5.62;86.62
80509;BME280;69838;52.602;13.434;2023-05-27T00:30:46;102380.88;;;5.64;86.78
80509;BME280;69838;52.602;13.434;2023-05-27T00:31:32;102356.78;;;5.51;86.57
80509;BME280;69838;52.602;13.434;2023-05-27T00:32:17;102372.84;;;5.59;86.63
80509;BME280;69838;52.602;13.434;2023-05-27T00:33:02;102346.09;;;5.42;87.32
80509;BME280;69838;52.602;13.434;2023-05-27T00:33:47;102363.03;;;5.57;86.90
80509;BME280;69838;52.602;13.434;2023-05-27T00:34:33;102377.31;;;5.59;87.18
80509;BME280;69838;52.602;13.434;2023-05-27T00:35:19;102378.22;;;5.54;87.00
80509;BME280;69838;52.602;13.434;2023-05-27T00:36:04;102366.63;;;5.49;87.21
80509;BME280;69838;52.602;13.434;2023-05-27T00:36:50;102384.47;;;5.53;86.91
80509;BME280;69838;52.602;13.434;2023-05-27T00:37:35;102362.16;;;5.36;86.71
80509;BME280;69838;52.602;13.434;2023-05-27T00:38:20;102372.84;;;5.50;87.54
80509;BME280;69838;52.602;13.434;2023-05-27T00:39:06;102363.03;;;5.38;86.99
80509;BME280;69838;52.602;13.434;2023-05-27T00:39:51;102366.59;;;5.46;87.53
80509;BME280;69838;52.602;13.434;2023-05-27T00:40:39;102366.63;;;5.40;86.98
80509;BME280;69838;52.602;13.434;2023-05-27T00:41:25;102358.59;;;5.37;87.14
80509;BME280;69838;52.602;13.434;2023-05-27T00:42:12;102358.59;;;5.39;87.39
80509;BME280;69838;52.602;13.434;2023-05-27T00:42:57;102356.78;;;5.36;87.41
80509;BME280;69838;52.602;13.434;2023-05-27T00:43:43;102373.75;;;5.44;87.02
80509;BME280;69838;52.602;13.434;2023-05-27T00:44:28;102354.13;;;5.33;86.92
80509;BME280;69838;52.602;13.434;2023-05-27T00:45:13;102338.09;;;5.21;87.07
80509;BME280;69838;52.602;13.434;2023-05-27T00:45:58;102357.72;;;5.26;87.18
80509;BME280;69838;52.602;13.434;2023-05-27T00:46:44;102370.19;;;5.39;87.58
80509;BME280;69838;52.602;13.434;2023-05-27T00:47:33;102365.72;;;5.32;87.25
80509;BME280;69838;52.602;13.434;2023-05-27T00:48:19;102349.69;;;5.21;87.33
80509;BME280;69838;52.602;13.434;2023-05-27T00:49:05;102360.41;;;5.24;87.57
80509;BME280;69838;52.602;13.434;2023-05-27T00:49:50;102347.91;;;5.14;87.75
80509;BME280;69838;52.602;13.434;2023-05-27T00:50:36;102336.28;;;5.04;87.73
80509;BME280;69838;52.602;13.434;2023-05-27T00:51:21;102352.38;;;5.13;87.38
80509;BME280;69838;52.602;13.434;2023-05-27T00:52:07;102356.81;;;5.19;87.11
80509;BME280;69838;52.602;13.434;2023-05-27T00:52:53;102362.19;;;5.21;87.20
80509;BME280;69838;52.602;13.434;2023-05-27T00:53:42;102371.09;;;5.29;87.59
80509;BME280;69838;52.602;13.434;2023-05-27T00:54:29;102368.41;;;5.32;87.86
80509;BME280;69838;52.602;13.434;2023-05-27T00:55:14;102350.56;;;5.19;87.70
80509;BME280;69838;52.602;13.434;2023-05-27T00:56:00;102360.38;;;5.16;87.70
80509;BME280;69838;52.602;13.434;2023-05-27T00:56:46;102354.13;;;5.11;87.93
80509;BME280;69838;52.602;13.434;2023-05-27T00:57:31;102360.38;;;5.16;88.27
80509;BME280;69838;52.602;13.434;2023-05-27T00:58:18;102370.22;;;5.21;88.17
80509;BME280;69838;52.602;13.434;2023-05-27T00:59:06;102360.38;;;5.21;88.14
80509;BME280;69838;52.602;13.434;2023-05-27T00:59:52;102365.75;;;5.23;88.29
80509;BME280;69838;52.602;13.434;2023-05-27T01:00:37;102371.97;;;5.22;88.45
80509;BME280;69838;52.602;13.434;2023-05-27T01:01:23;102372.00;;;5.17;88.51
80509;BME280;69838;52.602;13.434;2023-05-27T01:02:10;102371.97;;;5.20;88.38
80509;BME280;69838;52.602;13.434;2023-05-27T01:02:55;102372.00;;;5.14;88.33
80509;BME280;69838;52.602;13.434;2023-05-27T01:03:41;102359.47;;;5.01;88.22
80509;BME280;69838;52.602;13.434;2023-05-27T01:04:26;102373.78;;;5.07;88.75
80509;BME280;69838;52.602;13.434;2023-05-27T01:05:14;102349.69;;;4.98;88.98
80509;BME280;69838;52.602;13.434;2023-05-27T01:06:39;102371.97;;;5.09;88.99
80509;BME280;69838;52.602;13.434;2023-05-27T01:07:46;102347.00;;;5.07;88.96
80509;BME280;69838;52.602;13.434;2023-05-27T01:08:45;102363.97;;;5.15;87.98
80509;BME280;69838;52.602;13.434;2023-05-27T01:09:52;102355.94;;;5.03;87.29
80509;BME280;69838;52.602;13.434;2023-05-27T01:10:46;102349.69;;;5.09;88.17
80509;BME280;69838;52.602;13.434;2023-05-27T01:12:10;102366.63;;;5.09;87.72
80509;BME280;69838;52.602;13.434;2023-05-27T01:13:00;102371.09;;;5.03;88.07
80509;BME280;69838;52.602;13.434;2023-05-27T01:13:50;102370.22;;;4.99;88.32
80509;BME280;69838;52.602;13.434;2023-05-27T01:14:38;102364.88;;;4.99;88.22
80509;BME280;69838;52.602;13.434;2023-05-27T01:15:25;102365.75;;;4.98;88.45
80509;BME280;69838;52.602;13.434;2023-05-27T01:16:13;102369.31;;;4.95;88.48
80509;BME280;69838;52.602;13.434;2023-05-27T01:16:59;102352.34;;;4.86;88.24
80509;BME280;69838;52.602;13.434;2023-05-27T01:17:47;102363.94;;;4.97;88.26
80509;BME280;69838;52.602;13.434;2023-05-27T01:18:33;102355.94;;;4.85;88.75
80509;BME280;69838;52.602;13.434;2023-05-27T01:19:28;102369.31;;;4.94;88.34
80509;BME280;69838;52.602;13.434;2023-05-27T01:20:18;102348.78;;;4.87;88.88
80509;BME280;69838;52.602;13.434;2023-05-27T01:21:06;102351.44;;;4.91;88.39
80509;BME280;69838;52.602;13.434;2023-05-27T01:21:52;102341.66;;;4.80;88.25
80509;BME280;69838;52.602;13.434;2023-05-27T01:22:39;102344.31;;;4.78;88.26
80509;BME280;69838;52.602;13.434;2023-05-27T01:23:27;102354.13;;;4.81;88.93
80509;BME280;69838;52.602;13.434;2023-05-27T01:24:12;102345.19;;;4.77;88.81
80509;BME280;69838;52.602;13.434;2023-05-27T01:24:57;102357.69;;;4.86;88.11
80509;BME280;69838;52.602;13.434;2023-05-27T01:25:42;102365.72;;;4.83;88.29
80509;BME280;69838;52.602;13.434;2023-05-27T01:26:28;102350.56;;;4.78;88.62
80509;BME280;69838;52.602;13.434;2023-05-27T01:27:13;102365.72;;;4.84;88.88
80509;BME280;69838;52.602;13.434;2023-05-27T01:28:00;102355.91;;;4.75;88.91
80509;BME280;69838;52.602;13.434;2023-05-27T01:28:45;102365.72;;;4.78;89.20
80509;BME280;69838;52.602;13.434;2023-05-27T01:29:31;102355.00;;;4.72;89.07
80509;BME280;69838;52.602;13.434;2023-05-27T01:30:16;102352.31;;;4.73;88.92
80509;BME280;69838;52.602;13.434;2023-05-27T01:31:26;102364.84;;;4.84;89.22
80509;BME280;69838;52.602;13.434;2023-05-27T01:32:30;102364.84;;;4.85;89.21
80509;BME280;69838;52.602;13.434;2023-05-27T01:33:21;102363.94;;;4.78;89.39
80509;BME280;69838;52.602;13.434;2023-05-27T01:34:10;102362.16;;;4.74;89.02
80509;BME280;69838;52.602;13.434;2023-05-27T01:36:01;102351.44;;;4.62;88.46
80509;BME280;69838;52.602;13.434;2023-05-27T01:36:51;102362.13;;;4.64;88.69
80509;BME280;69838;52.602;13.434;2023-05-27T01:37:41;102350.56;;;4.63;88.94
80509;BME280;69838;52.602;13.434;2023-05-27T01:38:28;102366.63;;;4.74;89.01
80509;BME280;69838;52.602;13.434;2023-05-27T01:39:16;102370.16;;;4.71;88.91
80509;BME280;69838;52.602;13.434;2023-05-27T01:40:02;102358.59;;;4.71;88.93
80509;BME280;69838;52.602;13.434;2023-05-27T01:40:51;102367.47;;;4.68;88.75
80509;BME280;69838;52.602;13.434;2023-05-27T01:41:40;102362.13;;;4.62;88.76
80509;BME280;69838;52.602;13.434;2023-05-27T01:42:27;102356.78;;;4.65;88.40
80509;BME280;69838;52.602;13.434;2023-05-27T01:43:13;102346.97;;;4.55;88.62
80509;BME280;69838;52.602;13.434;2023-05-27T01:43:59;102353.19;;;4.54;88.68
80509;BME280;69838;52.602;13.434;2023-05-27T01:44:45;102358.56;;;4.58;89.02
80509;BME280;69838;52.602;13.434;2023-05-27T01:45:31;102360.34;;;4.55;88.89
80509;BME280;69838;52.602;13.434;2023-05-27T01:46:17;102355.88;;;4.57;89.93
80509;BME280;69838;52.602;13.434;2023-05-27T01:47:03;102354.09;;;4.51;89.42
80509;BME280;69838;52.602;13.434;2023-05-27T01:47:48;102343.38;;;4.45;89.44
80509;BME280;69838;52.602;13.434;2023-05-27T01:48:33;102354.06;;;4.50;89.40
80509;BME280;69838;52.602;13.434;2023-05-27T01:49:19;102353.19;;;4.48;89.70
80509;BME280;69838;52.602;13.434;2023-05-27T01:50:04;102363.00;;;4.49;89.36
80509;BME280;69838;52.602;13.434;2023-05-27T01:50:50;102368.34;;;4.46;89.38
80509;BME280;69838;52.602;13.434;2023-05-27T01:51:35;102358.53;;;4.46;90.26
80509;BME280;69838;52.602;13.434;2023-05-27T01:52:21;102357.66;;;4.49;89.71
80509;BME280;69838;52.602;13.434;2023-05-27T01:53:06;102359.41;;;4.47;90.01
80509;BME280;69838;52.602;13.434;2023-05-27T01:53:52;102342.47;;;4.37;89.65
80509;BME280;69838;52.602;13.434;2023-05-27T01:54:37;102362.09;;;4.44;89.99
80509;BME280;69838;52.602;13.434;2023-05-27T01:55:22;102353.16;;;4.38;89.81
80509;BME280;69838;52.602;13.434;2023-05-27T01:56:07;102363.88;;;4.42;90.35
80509;BME280;69838;52.602;13.434;2023-05-27T01:56:53;102347.81;;;4.40;90.49
80509;BME280;69838;52.602;13.434;2023-05-27T01:57:38;102341.56;;;4.32;90.52
80509;BME280;69838;52.602;13.434;2023-05-27T01:58:23;102351.41;;;4.42;90.88
80509;BME280;69838;52.602;13.434;2023-05-27T01:59:09;102354.97;;;4.50;90.17
80509;BME280;69838;52.602;13.434;2023-05-27T01:59:54;102340.69;;;4.33;90.06
80509;BME280;69838;52.602;13.434;2023-05-27T02:00:39;102343.38;;;4.45;90.19
80509;BME280;69838;52.602;13.434;2023-05-27T02:01:24;102336.22;;;4.33;90.44
80509;BME280;69838;52.602;13.434;2023-05-27T02:02:10;102349.63;;;4.46;90.40
80509;BME280;69838;52.602;13.434;2023-05-27T02:02:55;102333.56;;;4.38;90.32
80509;BME280;69838;52.602;13.434;2023-05-27T02:03:41;102329.09;;;4.31;90.15
80509;BME280;69838;52.602;13.434;2023-05-27T02:04:26;102334.44;;;4.31;90.43
80509;BME280;69838;52.602;13.434;2023-05-27T02:05:11;102331.75;;;4.32;90.57
80509;BME280;69838;52.602;13.434;2023-05-27T02:05:56;102331.75;;;4.26;90.24
80509;BME280;69838;52.602;13.434;2023-05-27T02:06:41;102330.84;;;4.30;90.07
80509;BME280;69838;52.602;13.434;2023-05-27T02:07:27;102338.00;;;4.31;90.26
80509;BME280;69838;52.602;13.434;2023-05-27T02:08:13;102334.41;;;4.26;89.93
80509;BME280;69838;52.602;13.434;2023-05-27T02:08:58;102352.25;;;4.33;90.32
80509;BME280;69838;52.602;13.434;2023-05-27T02:09:43;102351.38;;;4.31;90.17
80509;BME280;69838;52.602;13.434;2023-05-27T02:10:30;102348.69;;;4.31;89.79
80509;BME280;69838;52.602;13.434;2023-05-27T02:11:15;102337.97;;;4.19;89.91
80509;BME280;69838;52.602;13.434;2023-05-27T02:12:00;102348.69;;;4.24;90.08
80509;BME280;69838;52.602;13.434;2023-05-27T02:12:45;102360.22;;;4.21;90.21
80509;BME280;69838;52.602;13.434;2023-05-27T02:13:32;102333.47;;;4.09;90.71
80509;BME280;69838;52.602;13.434;2023-05-27T02:14:18;102332.59;;;4.11;90.31
80509;BME280;69838;52.602;13.434;2023-05-27T02:15:04;102347.75;;;4.21;90.15
80509;BME280;69838;52.602;13.434;2023-05-27T02:15:49;102352.19;;;4.12;90.10
80509;BME280;69838;52.602;13.434;2023-05-27T02:16:35;102352.19;;;4.18;90.50
80509;BME280;69838;52.602;13.434;2023-05-27T02:17:21;102338.81;;;4.06;90.66
80509;BME280;69838;52.602;13.434;2023-05-27T02:18:09;102337.00;;;4.03;90.41
80509;BME280;69838;52.602;13.434;2023-05-27T02:18:55;102339.72;;;4.08;90.86
80509;BME280;69838;52.602;13.434;2023-05-27T02:19:40;102341.47;;;4.03;90.78
80509;BME280;69838;52.602;13.434;2023-05-27T02:20:26;102340.59;;;4.02;90.46
80509;BME280;69838;52.602;13.434;2023-05-27T02:21:11;102353.91;;;4.04;90.79
80509;BME280;69838;52.602;13.434;2023-05-27T02:21:56;102340.56;;;4.00;90.04
80509;BME280;69838;52.602;13.434;2023-05-27T02:22:42;102342.34;;;3.98;90.60
80509;BME280;69838;52.602;13.434;2023-05-27T02:23:27;102346.75;;;3.96;90.77
80509;BME280;69838;52.602;13.434;2023-05-27T02:24:12;102333.41;;;3.98;91.07
80509;BME280;69838;52.602;13.434;2023-05-27T02:24:57;102347.69;;;4.05;90.72
80509;BME280;69838;52.602;13.434;2023-05-27T02:25:43;102355.75;;;4.09;90.48
80509;BME280;69838;52.602;13.434;2023-05-27T02:26:28;102343.28;;;4.10;90.22
80509;BME280;69838;52.602;13.434;2023-05-27T02:27:13;102362.88;;;4.12;90.55
80509;BME280;69838;52.602;13.434;2023-05-27T02:27:59;102355.75;;;4.08;90.44
80509;BME280;69838;52.602;13.434;2023-05-27T02:28:47;102358.38;;;4.03;90.62
80509;BME280;69838;52.602;13.434;2023-05-27T02:29:32;102350.38;;;3.98;90.92
80509;BME280;69838;52.602;13.434;2023-05-27T02:30:18;102352.13;;;3.93;90.69
80509;BME280;69838;52.602;13.434;2023-05-27T02:31:03;102338.75;;;3.92;90.93
80509;BME280;69838;52.602;13.434;2023-05-27T02:31:48;102344.97;;;3.91;90.95
80509;BME280;69838;52.602;13.434;2023-05-27T02:32:33;102361.97;;;4.02;91.07
80509;BME280;69838;52.602;13.434;2023-05-27T02:33:19;102353.91;;;4.04;91.45
80509;BME280;69838;52.602;13.434;2023-05-27T02:34:04;102350.41;;;4.08;91.33
80509;BME280;69838;52.602;13.434;2023-05-27T02:34:49;102333.38;;;3.89;91.26
80509;BME280;69838;52.602;13.434;2023-05-27T02:35:35;102335.16;;;3.87;91.20
80509;BME280;69838;52.602;13.434;2023-05-27T02:36:20;102347.63;;;3.91;90.94
80509;BME280;69838;52.602;13.434;2023-05-27T02:37:09;102344.03;;;3.86;90.93
80509;BME280;69838;52.602;13.434;2023-05-27T02:37:54;102345.81;;;3.83;91.07
80509;BME280;69838;52.602;13.434;2023-05-27T02:38:40;102344.91;;;3.77;91.12
80509;BME280;69838;52.602;13.434;2023-05-27T02:39:26;102364.56;;;3.88;91.21
80509;BME280;69838;52.602;13.434;2023-05-27T02:40:11;102364.59;;;3.91;91.26
80509;BME280;69838;52.602;13.434;2023-05-27T02:40:56;102366.31;;;3.89;91.05
80509;BME280;69838;52.602;13.434;2023-05-27T02:41:41;102366.31;;;3.89;91.35
80509;BME280;69838;52.602;13.434;2023-05-27T02:42:27;102359.22;;;3.94;90.93
80509;BME280;69838;52.602;13.434;2023-05-27T02:43:12;102340.44;;;3.76;90.74
80509;BME280;69838;52.602;13.434;2023-05-27T02:43:57;102348.50;;;3.79;90.33
80509;BME280;69838;52.602;13.434;2023-05-27T02:44:42;102357.41;;;3.81;90.16
80509;BME280;69838;52.602;13.434;2023-05-27T02:45:27;102335.06;;;3.65;90.54
80509;BME280;69838;52.602;13.434;2023-05-27T02:46:13;102332.38;;;3.63;90.60
80509;BME280;69838;52.602;13.434;2023-05-27T02:46:58;102349.34;;;3.72;90.63
80509;BME280;69838;52.602;13.434;2023-05-27T02:47:43;102344.88;;;3.71;90.66
80509;BME280;69838;52.602;13.434;2023-05-27T02:48:29;102356.47;;;3.76;90.72
80509;BME280;69838;52.602;13.434;2023-05-27T02:49:14;102351.97;;;3.62;91.03
80509;BME280;69838;52.602;13.434;2023-05-27T02:50:00;102341.22;;;3.56;91.10
80509;BME280;69838;52.602;13.434;2023-05-27T02:50:45;102352.84;;;3.68;90.64
80509;BME280;69838;52.602;13.434;2023-05-27T02:51:30;102342.13;;;3.58;90.59
80509;BME280;69838;52.602;13.434;2023-05-27T02:52:15;102359.09;;;3.67;90.78
80509;BME280;69838;52.602;13.434;2023-05-27T02:53:01;102363.56;;;3.66;90.91
80509;BME280;69838;52.602;13.434;2023-05-27T02:53:46;102369.78;;;3.65;91.20
80509;BME280;69838;52.602;13.434;2023-05-27T02:54:31;102322.47;;;3.46;91.46
80509;BME280;69838;52.602;13.434;2023-05-27T02:55:16;102365.31;;;3.67;90.92
80509;BME280;69838;52.602;13.434;2023-05-27T02:56:02;102347.44;;;3.51;90.89
80509;BME280;69838;52.602;13.434;2023-05-27T02:56:47;102367.06;;;3.62;91.51
80509;BME280;69838;52.602;13.434;2023-05-27T02:57:32;102351.91;;;3.56;90.98
80509;BME280;69838;52.602;13.434;2023-05-27T02:58:17;102358.13;;;3.57;91.52
80509;BME280;69838;52.602;13.434;2023-05-27T02:59:03;102368.00;;;3.66;91.10
80509;BME280;69838;52.602;13.434;2023-05-27T02:59:48;102342.13;;;3.57;91.75
80509;BME280;69838;52.602;13.434;2023-05-27T03:00:34;102369.78;;;3.67;91.39
80509;BME280;69838;52.602;13.434;2023-05-27T03:01:19;102373.34;;;3.69;91.08
80509;BME280;69838;52.602;13.434;2023-05-27T03:02:04;102357.31;;;3.62;91.18
80509;BME280;69838;52.602;13.434;2023-05-27T03:02:50;102359.94;;;3.59;91.29
80509;BME280;69838;52.602;13.434;2023-05-27T03:03:36;102369.78;;;3.67;91.29
80509;BME280;69838;52.602;13.434;2023-05-27T03:04:21;102367.06;;;3.62;90.84
80509;BME280;69838;52.602;13.434;2023-05-27T03:05:07;102366.16;;;3.58;90.40
80509;BME280;69838;52.602;13.434;2023-05-27T03:05:52;102378.69;;;3.62;90.60
80509;BME280;69838;52.602;13.434;2023-05-27T03:06:37;102362.59;;;3.56;90.70
80509;BME280;69838;52.602;13.434;2023-05-27T03:07:23;102378.66;;;3.61;90.81
80509;BME280;69838;52.602;13.434;2023-05-27T03:08:08;102367.97;;;3.59;91.18
80509;BME280;69838;52.602;13.434;2023-05-27T03:08:53;102365.31;;;3.61;91.45
80509;BME280;69838;52.602;13.434;2023-05-27T03:09:38;102367.97;;;3.59;91.71
80509;BME280;69838;52.602;13.434;2023-05-27T03:10:24;102369.75;;;3.63;91.25
80509;BME280;69838;52.602;13.434;2023-05-27T03:11:09;102360.88;;;3.65;90.62
80509;BME280;69838;52.602;13.434;2023-05-27T03:11:54;102363.56;;;3.69;91.15
80509;BME280;69838;52.602;13.434;2023-05-27T03:12:39;102342.13;;;3.55;90.73
80509;BME280;69838;52.602;13.434;2023-05-27T03:13:25;102367.19;;;3.77;90.51
80509;BME280;69838;52.602;13.434;2023-05-27T03:14:10;102360.94;;;3.77;90.61
80509;BME280;69838;52.602;13.434;2023-05-27T03:14:55;102363.59;;;3.78;90.87
80509;BME280;69838;52.602;13.434;2023-05-27T03:15:41;102356.47;;;3.76;90.50
80509;BME280;69838;52.602;13.434;2023-05-27T03:16:26;102365.38;;;3.72;90.70
80509;BME280;69838;52.602;13.434;2023-05-27T03:17:11;102352.88;;;3.65;90.67
80509;BME280;69838;52.602;13.434;2023-05-27T03:17:57;102357.31;;;3.66;90.64
80509;BME280;69838;52.602;13.434;2023-05-27T03:18:42;102355.53;;;3.63;90.68
80509;BME280;69838;52.602;13.434;2023-05-27T03:19:28;102356.41;;;3.63;90.78
80509;BME280;69838;52.602;13.434;2023-05-27T03:20:13;102368.91;;;3.69;90.81
80509;BME280;69838;52.602;13.434;2023-05-27T03:20:58;102355.47;;;3.58;90.95
80509;BME280;69838;52.602;13.434;2023-05-27T03:21:43;102342.97;;;3.51;90.61
80509;BME280;69838;52.602;13.434;2023-05-27T03:22:29;102353.72;;;3.60;91.06
80509;BME280;69838;52.602;13.434;2023-05-27T03:23:14;102364.41;;;3.63;90.89
80509;BME280;69838;52.602;13.434;2023-05-27T03:23:59;102352.81;;;3.55;90.90
80509;BME280;69838;52.602;13.434;2023-05-27T03:24:45;102337.59;;;3.45;91.16
80509;BME280;69838;52.602;13.434;2023-05-27T03:25:30;102369.75;;;3.63;91.18
80509;BME280;69838;52.602;13.434;2023-05-27T03:26:15;102367.16;;;3.74;90.96
80509;BME280;69838;52.602;13.434;2023-05-27T03:27:01;102376.97;;;3.77;91.14
80509;BME280;69838;52.602;13.434;2023-05-27T03:27:48;102351.13;;;3.70;91.32
80509;BME280;69838;52.602;13.434;2023-05-27T03:28:33;102349.31;;;3.69;91.38
80509;BME280;69838;52.602;13.434;2023-05-27T03:29:18;102357.34;;;3.72;91.07
80509;BME280;69838;52.602;13.434;2023-05-27T03:30:05;102350.22;;;3.72;91.27
80509;BME280;69838;52.602;13.434;2023-05-27T03:30:50;102361.84;;;3.82;91.48
80509;BME280;69838;52.602;13.434;2023-05-27T03:31:40;102352.94;;;3.77;91.36
80509;BME280;69838;52.602;13.434;2023-05-27T03:32:26;102364.53;;;3.85;91.12
80509;BME280;69838;52.602;13.434;2023-05-27T03:33:11;102342.25;;;3.75;91.14
80509;BME280;69838;52.602;13.434;2023-05-27T03:33:56;102344.00;;;3.75;91.39
80509;BME280;69838;52.602;13.434;2023-05-27T03:34:41;102349.34;;;3.73;91.02
80509;BME280;69838;52.602;13.434;2023-05-27T03:35:27;102323.47;;;3.61;91.29
80509;BME280;69838;52.602;13.434;2023-05-27T03:36:12;102356.50;;;3.77;91.55
80509;BME280;69838;52.602;13.434;2023-05-27T03:36:57;102369.91;;;3.90;91.48
80509;BME280;69838;52.602;13.434;2023-05-27T03:37:43;102353.84;;;3.79;91.51
80509;BME280;69838;52.602;13.434;2023-05-27T03:38:28;102346.72;;;3.81;91.64
80509;BME280;69838;52.602;13.434;2023-05-27T03:39:13;102363.72;;;3.97;91.46
80509;BME280;69838;52.602;13.434;2023-05-27T03:39:58;102356.56;;;3.91;91.51
80509;BME280;69838;52.602;13.434;2023-05-27T03:40:44;102364.56;;;3.94;91.56
80509;BME280;69838;52.602;13.434;2023-05-27T03:41:30;102330.69;;;3.81;91.18
80509;BME280;69838;52.602;13.434;2023-05-27T03:42:16;102363.69;;;3.94;91.31
80509;BME280;69838;52.602;13.434;2023-05-27T03:43:01;102361.91;;;3.94;91.56
80509;BME280;69838;52.602;13.434;2023-05-27T03:43:46;102350.31;;;3.88;91.55
80509;BME280;69838;52.602;13.434;2023-05-27T03:44:32;102361.00;;;3.86;91.35
80509;BME280;69838;52.602;13.434;2023-05-27T03:45:17;102359.25;;;3.91;91.61
80509;BME280;69838;52.602;13.434;2023-05-27T03:46:02;102356.53;;;3.93;91.77
80509;BME280;69838;52.602;13.434;2023-05-27T03:46:47;102364.56;;;3.94;91.80
80509;BME280;69838;52.602;13.434;2023-05-27T03:47:33;102368.16;;;3.96;91.94
80509;BME280;69838;52.602;13.434;2023-05-27T03:48:19;102361.03;;;3.95;91.69
80509;BME280;69838;52.602;13.434;2023-05-27T03:49:05;102365.50;;;3.95;91.81
80509;BME280;69838;52.602;13.434;2023-05-27T03:49:50;102353.88;;;3.93;91.86
80509;BME280;69838;52.602;13.434;2023-05-27T03:50:35;102375.31;;;4.04;91.82
80509;BME280;69838;52.602;13.434;2023-05-27T03:51:21;102366.41;;;4.11;92.39
80509;BME280;69838;52.602;13.434;2023-05-27T03:52:06;102350.38;;;4.11;92.96
80509;BME280;69838;52.602;13.434;2023-05-27T03:52:52;102362.91;;;4.21;92.97
80509;BME280;69838;52.602;13.434;2023-05-27T03:53:37;102363.78;;;4.21;92.99
80509;BME280;69838;52.602;13.434;2023-05-27T03:54:22;102353.06;;;4.14;92.17
80509;BME280;69838;52.602;13.434;2023-05-27T03:55:08;102367.38;;;4.22;92.37
80509;BME280;69838;52.602;13.434;2023-05-27T03:55:53;102370.94;;;4.24;92.55
80509;BME280;69838;52.602;13.434;2023-05-27T03:56:38;102354.88;;;4.16;92.13
80509;BME280;69838;52.602;13.434;2023-05-27T03:57:24;102364.69;;;4.19;92.25
80509;BME280;69838;52.602;13.434;2023-05-27T03:58:09;102362.94;;;4.24;93.38
80509;BME280;69838;52.602;13.434;2023-05-27T03:58:58;102362.03;;;4.20;93.22
80509;BME280;69838;52.602;13.434;2023-05-27T03:59:43;102353.09;;;4.23;93.40
80509;BME280;69838;52.602;13.434;2023-05-27T04:00:28;102373.66;;;4.36;92.60
80509;BME280;69838;52.602;13.434;2023-05-27T04:01:15;102370.13;;;4.44;92.92
80509;BME280;69838;52.602;13.434;2023-05-27T04:02:05;102370.13;;;4.44;93.43
80509;BME280;69838;52.602;13.434;2023-05-27T04:02:50;102362.06;;;4.33;92.49
80509;BME280;69838;52.602;13.434;2023-05-27T04:03:35;102378.16;;;4.45;92.63